UKDR/KWG METAR and TAF weather

Enter ICAO airport designator
Station Type Date Time Source
UKDR METAR 2020/07/09 06:30 UTC NOAA

UKDR 090630Z 33004MPS 300V020 CAVOK 21/10 Q1018 R36/09//70 NOSIG


Station Type Date Time Source
UKDR Decoded METAR 2020/07/09 06:30 UTC NOAA

Krivyy Rih / Dnipropetrovs'k, Ukraine (UKDR) 48-03N 033-13-12E
Jul 09, 2020 - 02:30 AM EDT / 2020.07.09 0630 UTC
Wind: from the NNW (330 degrees) at 9 MPH (8 KT) (direction variable):0
Visibility: greater than 7 mile(s):0
Temperature: 69 F (21 C)
Dew Point: 50 F (10 C)
Relative Humidity: 49%
Pressure (altimeter): 30.06 in. Hg (1018 hPa)
ob: UKDR 090630Z 33004MPS 300V020 CAVOK 21/10 Q1018 R36/09//70 NOSIG
cycle: 6

Station Type Date Time Source
UKDR TAF 2020/07/09 06:00 UTC NOAA

TAF UKDR 090504Z 0906/1006 32004G09MPS 9999 SCT030 TX25/0912Z TN15/1002Z
BECMG 0918/0920 VRB01MPS
TEMPO 0920/1006 2100 BR BKN007

Example: see airport list